createdAt,value
2018-09-18T00:01:16.394Z,4.60
2018-09-18T00:03:19.310Z,4.50
2018-09-18T00:05:23.721Z,4.63
2018-09-18T00:07:26.641Z,4.83
2018-09-18T00:09:29.571Z,4.10
2018-09-18T00:11:32.460Z,3.97
2018-09-18T00:13:35.346Z,3.80
2018-09-18T00:15:38.247Z,2.73
2018-09-18T00:17:41.929Z,3.67
2018-09-18T00:19:46.349Z,3.70
2018-09-18T00:21:49.337Z,3.43
2018-09-18T00:23:52.196Z,3.30
2018-09-18T00:25:55.075Z,3.17
2018-09-18T00:27:57.975Z,3.27
2018-09-18T00:30:00.845Z,3.40
2018-09-18T00:32:03.721Z,3.40
2018-09-18T00:34:06.713Z,2.97
2018-09-18T00:36:11.104Z,3.50
2018-09-18T00:38:13.992Z,2.90
2018-09-18T00:40:16.893Z,3.20
2018-09-18T00:42:19.769Z,4.23
2018-09-18T00:44:22.766Z,3.40
2018-09-18T00:46:25.647Z,3.13
2018-09-18T00:48:30.029Z,3.33
2018-09-18T00:50:32.913Z,2.93
2018-09-18T00:52:35.817Z,2.70
2018-09-18T00:54:38.734Z,2.80
2018-09-18T00:56:42.430Z,3.00
2018-09-18T00:58:45.385Z,2.70
2018-09-18T01:00:48.255Z,2.63
2018-09-18T01:02:51.124Z,3.23
2018-09-18T01:04:54.094Z,3.10
2018-09-18T01:06:56.997Z,3.00
2018-09-18T01:08:59.868Z,3.00
2018-09-18T01:11:02.770Z,3.37
2018-09-18T01:13:07.153Z,2.90
2018-09-18T01:15:10.037Z,3.00
2018-09-18T01:17:12.953Z,3.10
2018-09-18T01:19:16.588Z,2.93
2018-09-18T01:21:19.474Z,3.63
2018-09-18T01:23:22.712Z,4.00
2018-09-18T01:25:27.093Z,2.60
2018-09-18T01:27:29.976Z,2.70
2018-09-18T01:29:32.883Z,2.77
2018-09-18T01:31:35.766Z,3.77
2018-09-18T01:33:40.281Z,2.90
2018-09-18T01:35:43.365Z,2.63
2018-09-18T01:37:46.561Z,3.30
2018-09-18T01:39:49.462Z,2.70
2018-09-18T01:41:53.131Z,3.20
2018-09-18T01:43:56.018Z,3.30
2018-09-18T01:45:58.898Z,3.03
2018-09-18T01:48:02.008Z,2.60
2018-09-18T01:50:05.006Z,3.17
2018-09-18T01:52:08.629Z,2.97
2018-09-18T01:54:11.543Z,3.57
2018-09-18T01:56:15.208Z,3.10
2018-09-18T01:58:18.133Z,2.90
2018-09-18T02:00:22.541Z,2.90
2018-09-18T02:02:25.420Z,2.70
2018-09-18T02:04:28.308Z,3.70
2018-09-18T02:06:31.305Z,3.00
2018-09-18T02:08:34.278Z,3.03
2018-09-18T02:10:37.140Z,2.60
2018-09-18T02:12:40.036Z,3.10
2018-09-18T02:14:43.057Z,3.17
2018-09-18T02:16:46.713Z,3.43
2018-09-18T02:18:49.678Z,3.17
2018-09-18T02:20:52.684Z,3.10
2018-09-18T02:22:55.568Z,3.17
2018-09-18T02:24:58.661Z,3.33
2018-09-18T02:27:02.387Z,2.77
2018-09-18T02:29:06.049Z,2.80
2018-09-18T02:31:09.156Z,3.00
2018-09-18T02:33:12.845Z,2.70
2018-09-18T02:35:15.817Z,3.20
2018-09-18T02:37:37.638Z,2.60
2018-09-18T02:48:38.472Z,3.30
2018-09-18T02:58:37.516Z,3.30
2018-09-18T03:08:42.551Z,3.53
2018-09-18T03:18:35.602Z,3.10
2018-09-18T03:28:34.453Z,3.70
2018-09-18T03:33:03.856Z,3.58
2018-09-18T03:35:08.374Z,3.15
2018-09-18T03:37:12.022Z,3.10
2018-09-18T03:39:14.903Z,2.93
2018-09-18T03:41:17.906Z,3.43
2018-09-18T03:43:20.769Z,3.63
2018-09-18T03:45:23.648Z,3.47
2018-09-18T03:47:26.649Z,3.17
2018-09-18T03:49:29.521Z,3.50
2018-09-18T03:51:32.395Z,3.83
2018-09-18T03:53:35.299Z,3.30
2018-09-18T03:55:38.948Z,4.10
2018-09-18T03:57:41.889Z,3.17
2018-09-18T03:59:44.770Z,3.93
2018-09-18T04:01:48.409Z,3.67
2018-09-18T04:03:51.335Z,3.30
2018-09-18T04:05:54.222Z,3.40
2018-09-18T04:07:57.867Z,3.83
2018-09-18T04:10:00.784Z,3.20
2018-09-18T04:12:03.681Z,3.53
2018-09-18T04:14:06.644Z,2.87
2018-09-18T04:16:09.516Z,3.10
2018-09-18T04:18:12.402Z,3.90
2018-09-18T04:20:15.435Z,3.50
2018-09-18T04:22:19.067Z,3.47
2018-09-18T04:24:22.054Z,3.50
2018-09-18T04:26:24.928Z,3.10
2018-09-18T04:28:27.863Z,3.47
2018-09-18T04:30:30.924Z,3.97
2018-09-18T04:32:33.805Z,3.80
2018-09-18T04:34:36.690Z,2.80
2018-09-18T04:36:39.712Z,3.00
2018-09-18T04:38:43.343Z,3.40
2018-09-18T04:40:46.250Z,3.20
2018-09-18T04:42:49.462Z,3.60
2018-09-18T04:44:53.104Z,3.33
2018-09-18T04:46:55.985Z,3.50
2018-09-18T04:48:58.876Z,3.10
2018-09-18T04:51:01.785Z,4.40
2018-09-18T04:53:04.673Z,3.53
2018-09-18T04:55:08.353Z,3.83
2018-09-18T04:57:11.217Z,3.30
2018-09-18T04:59:14.231Z,3.97
2018-09-18T05:01:17.219Z,3.90
2018-09-18T05:03:21.601Z,4.07
2018-09-18T05:05:24.485Z,4.40
2018-09-18T05:07:27.426Z,3.70
2018-09-18T05:09:31.185Z,4.40
2018-09-18T05:11:34.064Z,3.90
2018-09-18T05:13:36.997Z,4.20
2018-09-18T05:15:39.960Z,3.27
2018-09-18T05:17:43.637Z,3.77
2018-09-18T05:19:46.719Z,3.70
2018-09-18T05:21:49.601Z,3.90
2018-09-18T05:23:52.472Z,3.93
2018-09-18T05:25:55.404Z,4.60
2018-09-18T05:27:58.385Z,4.43
2018-09-18T05:30:02.013Z,4.00
2018-09-18T05:32:05.020Z,4.10
2018-09-18T05:34:07.904Z,4.30
2018-09-18T05:36:10.784Z,4.00
2018-09-18T05:38:13.684Z,4.20
2018-09-18T05:40:17.336Z,4.30
2018-09-18T05:42:20.218Z,4.77
2018-09-18T05:44:23.116Z,5.03
2018-09-18T05:46:26.109Z,5.75
2018-09-18T05:48:29.010Z,5.47
2018-09-18T05:50:32.693Z,4.20
2018-09-18T05:52:35.565Z,4.73
2018-09-18T05:54:38.467Z,5.07
2018-09-18T05:56:42.860Z,3.50
2018-09-18T05:58:45.836Z,4.50
2018-09-18T06:00:48.772Z,4.10
2018-09-18T06:02:52.536Z,4.60
2018-09-18T06:04:56.945Z,4.43
2018-09-18T06:06:59.848Z,5.20
2018-09-18T06:09:03.596Z,4.87
2018-09-18T06:11:06.485Z,4.27
2018-09-18T06:13:09.436Z,5.50
2018-09-18T06:15:13.099Z,4.63
2018-09-18T06:17:15.972Z,4.83
2018-09-18T06:19:18.915Z,5.17
2018-09-18T06:21:22.570Z,4.37
2018-09-18T06:23:26.981Z,5.00
2018-09-18T06:25:30.673Z,6.50
2018-09-18T06:27:33.698Z,5.30
2018-09-18T06:29:37.328Z,6.33
2018-09-18T06:31:40.275Z,6.17
2018-09-18T06:33:43.222Z,6.30
2018-09-18T06:35:46.200Z,6.70
2018-09-18T06:37:49.092Z,6.20
2018-09-18T06:39:53.520Z,7.70
2018-09-18T06:41:57.165Z,6.70
2018-09-18T06:44:00.199Z,5.93
2018-09-18T06:46:03.883Z,8.40
2018-09-18T06:48:08.408Z,6.60
2018-09-18T06:50:11.222Z,8.00
2018-09-18T06:52:15.026Z,7.07
2018-09-18T06:54:18.679Z,7.80
2018-09-18T06:56:21.553Z,7.30
2018-09-18T06:58:24.648Z,7.80
2018-09-18T07:00:27.524Z,7.37
2018-09-18T07:02:30.557Z,7.37
2018-09-18T07:04:34.317Z,8.23
2018-09-18T07:06:37.200Z,8.47
2018-09-18T07:08:40.073Z,9.00
2018-09-18T07:10:43.098Z,8.43
2018-09-18T07:12:46.725Z,7.60
2018-09-18T07:14:49.649Z,10.03
2018-09-18T07:16:53.445Z,9.00
2018-09-18T07:18:56.312Z,8.57
2018-09-18T07:20:59.198Z,8.13
2018-09-18T07:23:02.284Z,8.57
2018-09-18T07:25:05.176Z,9.20
2018-09-18T07:27:08.073Z,8.13
2018-09-18T07:29:11.765Z,9.30
2018-09-18T07:31:15.429Z,9.20
2018-09-18T07:33:18.328Z,9.20
2018-09-18T07:35:21.373Z,8.83
2018-09-18T07:37:24.316Z,7.97
2018-09-18T07:39:27.981Z,8.03
2018-09-18T07:41:31.186Z,7.13
2018-09-18T07:43:34.073Z,8.27
2018-09-18T07:45:36.991Z,6.70
2018-09-18T07:47:40.029Z,7.97
2018-09-18T07:49:43.009Z,7.30
2018-09-18T07:51:45.892Z,7.80
2018-09-18T07:53:49.018Z,7.90
2018-09-18T07:55:52.822Z,6.43
2018-09-18T07:57:56.462Z,7.57
2018-09-18T07:59:59.389Z,7.47
2018-09-18T08:02:03.053Z,8.17
2018-09-18T08:04:05.964Z,6.90
2018-09-18T08:06:09.745Z,7.50
2018-09-18T08:08:12.617Z,7.27
2018-09-18T08:10:15.498Z,6.37
2018-09-18T08:12:18.489Z,7.00
2018-09-18T08:14:21.373Z,6.90
2018-09-18T08:16:25.768Z,7.20
2018-09-18T08:18:28.682Z,6.67
2018-09-18T08:20:32.345Z,5.63
2018-09-18T08:22:35.202Z,6.70
2018-09-18T08:24:38.233Z,7.60
2018-09-18T08:26:41.178Z,5.50
2018-09-18T08:28:44.086Z,5.40
2018-09-18T08:30:46.984Z,5.47
2018-09-18T08:32:51.420Z,5.10
2018-09-18T08:34:55.076Z,5.37
2018-09-18T08:36:57.989Z,5.70
2018-09-18T08:39:01.634Z,5.37
2018-09-18T08:41:04.530Z,5.20
2018-09-18T08:43:07.456Z,4.90
2018-09-18T08:45:10.302Z,5.13
2018-09-18T08:47:13.188Z,5.53
2018-09-18T08:49:16.131Z,4.83
2018-09-18T08:51:18.949Z,5.03
2018-09-18T08:53:21.842Z,5.43
2018-09-18T08:55:24.758Z,4.67
2018-09-18T08:57:28.394Z,4.93
2018-09-18T08:59:31.265Z,4.83
2018-09-18T09:01:34.182Z,5.30
2018-09-18T09:03:37.044Z,5.67
2018-09-18T09:05:39.954Z,4.97
2018-09-18T09:07:42.945Z,5.73
2018-09-18T09:09:45.804Z,4.50
2018-09-18T09:11:50.218Z,4.50
2018-09-18T09:13:53.085Z,4.47
2018-09-18T09:15:55.996Z,4.30
2018-09-18T09:17:59.031Z,4.40
2018-09-18T09:20:02.575Z,5.05
2018-09-18T09:22:05.507Z,4.50
2018-09-18T09:24:08.336Z,4.53
2018-09-18T09:26:11.225Z,4.90
2018-09-18T09:28:14.953Z,5.23
2018-09-18T09:30:18.644Z,4.90
2018-09-18T09:32:21.690Z,5.00
2018-09-18T09:34:24.465Z,4.87
2018-09-18T09:36:27.449Z,4.90
2018-09-18T09:38:30.360Z,4.37
2018-09-18T09:40:33.997Z,4.20
2018-09-18T09:42:36.873Z,5.60
2018-09-18T09:44:39.889Z,4.50
2018-09-18T09:46:42.775Z,4.63
2018-09-18T09:48:45.640Z,5.20
2018-09-18T09:50:48.705Z,5.13
2018-09-18T09:52:52.451Z,4.87
2018-09-18T09:54:55.391Z,4.90
2018-09-18T09:56:58.385Z,4.33
2018-09-18T09:59:01.189Z,4.60
2018-09-18T10:01:04.084Z,4.67
2018-09-18T10:03:07.860Z,4.10
2018-09-18T10:05:10.752Z,5.10
2018-09-18T10:07:13.648Z,4.60
2018-09-18T10:09:16.574Z,5.20
2018-09-18T10:11:19.505Z,4.47
2018-09-18T10:13:23.161Z,4.60
2018-09-18T10:15:26.161Z,5.17
2018-09-18T10:17:29.067Z,4.47
2018-09-18T10:19:31.946Z,4.67
2018-09-18T10:21:35.280Z,4.63
2018-09-18T10:23:38.908Z,4.47
2018-09-18T10:25:41.798Z,5.17
2018-09-18T10:27:44.797Z,5.10
2018-09-18T10:29:47.700Z,5.47
2018-09-18T10:31:50.575Z,4.80
2018-09-18T10:33:55.084Z,5.53
2018-09-18T10:35:58.060Z,5.20
2018-09-18T10:38:00.955Z,4.40
2018-09-18T10:40:04.286Z,5.10
2018-09-18T10:42:07.978Z,5.33
2018-09-18T10:44:10.848Z,4.83
2018-09-18T10:46:14.933Z,5.47
2018-09-18T10:48:18.627Z,5.27
2018-09-18T10:50:21.489Z,4.80
2018-09-18T10:52:24.396Z,4.70
2018-09-18T10:54:27.403Z,4.87
2018-09-18T10:56:31.036Z,5.20
2018-09-18T10:58:33.985Z,5.80
2018-09-18T11:00:37.601Z,5.10
2018-09-18T11:02:40.485Z,4.90
2018-09-18T11:04:43.360Z,4.70
2018-09-18T11:06:46.238Z,4.40
2018-09-18T11:08:49.137Z,5.30
2018-09-18T11:10:52.075Z,4.87
2018-09-18T11:12:54.945Z,5.17
2018-09-18T11:14:59.403Z,4.63
2018-09-18T11:17:02.535Z,5.20
2018-09-18T11:19:06.245Z,5.10
2018-09-18T11:21:09.154Z,5.50
2018-09-18T11:23:12.007Z,4.97
2018-09-18T11:25:15.676Z,4.77
2018-09-18T11:27:18.608Z,4.63
2018-09-18T11:29:22.389Z,4.70
2018-09-18T11:31:26.060Z,5.40
2018-09-18T11:33:28.994Z,4.57
2018-09-18T11:35:32.657Z,4.80
2018-09-18T11:37:35.573Z,5.17
2018-09-18T11:39:39.938Z,4.80
2018-09-18T11:41:42.950Z,4.53
2018-09-18T11:43:46.602Z,4.90
2018-09-18T11:45:49.585Z,4.67
2018-09-18T11:47:52.432Z,5.60
2018-09-18T11:49:56.165Z,5.40
2018-09-18T11:51:59.033Z,4.90
2018-09-18T11:54:01.949Z,5.90
2018-09-18T11:56:04.849Z,4.90
2018-09-18T11:58:07.863Z,5.10
2018-09-18T12:00:10.808Z,4.63
2018-09-18T12:02:13.696Z,4.70
2018-09-18T12:04:16.572Z,4.93
2018-09-18T12:06:19.595Z,4.60
2018-09-18T12:08:23.222Z,4.00
2018-09-18T12:10:26.109Z,4.70
2018-09-18T12:12:29.132Z,4.60
2018-09-18T12:14:32.790Z,5.20
2018-09-18T12:16:35.666Z,5.20
2018-09-18T12:18:38.686Z,5.33
2018-09-18T12:20:41.665Z,4.90
2018-09-18T12:22:44.605Z,5.50
2018-09-18T12:24:47.497Z,4.43
2018-09-18T12:26:50.373Z,4.77
2018-09-18T12:28:53.417Z,4.47
2018-09-18T12:30:57.190Z,4.20
2018-09-18T12:33:00.061Z,4.33
2018-09-18T12:35:02.941Z,4.87
2018-09-18T12:37:05.940Z,4.30
2018-09-18T12:39:08.854Z,4.63
2018-09-18T12:41:11.830Z,5.10
2018-09-18T12:43:14.704Z,5.93
2018-09-18T12:45:18.353Z,4.60
2018-09-18T12:47:21.239Z,4.50
2018-09-18T12:49:24.212Z,4.83
2018-09-18T12:51:27.024Z,4.57
2018-09-18T12:53:31.420Z,5.80
2018-09-18T12:55:34.392Z,4.67
2018-09-18T12:57:37.551Z,4.70
2018-09-18T12:59:40.212Z,4.60
2018-09-18T13:01:43.115Z,4.47
2018-09-18T13:03:46.003Z,5.20
2018-09-18T13:05:48.969Z,4.50
2018-09-18T13:07:52.756Z,4.37
2018-09-18T13:09:55.655Z,5.07
2018-09-18T13:11:58.520Z,5.10
2018-09-18T13:14:01.571Z,4.80
2018-09-18T13:16:04.496Z,4.60
2018-09-18T13:18:08.161Z,4.83
2018-09-18T13:20:11.252Z,5.10
2018-09-18T13:22:14.310Z,5.50
2018-09-18T13:24:17.932Z,4.57
2018-09-18T13:26:20.982Z,4.00
2018-09-18T13:28:23.843Z,4.97
2018-09-18T13:30:26.820Z,4.10
2018-09-18T13:32:30.532Z,5.17
2018-09-18T13:34:34.138Z,4.40
2018-09-18T13:36:37.094Z,4.20
2018-09-18T13:38:39.926Z,4.90
2018-09-18T13:40:42.819Z,4.40
2018-09-18T13:42:45.673Z,4.80
2018-09-18T13:44:48.668Z,4.00
2018-09-18T13:46:51.561Z,4.73
2018-09-18T13:48:54.470Z,3.90
2018-09-18T13:50:57.351Z,4.53
2018-09-18T13:53:00.983Z,3.80
2018-09-18T13:55:03.882Z,4.40
2018-09-18T13:57:06.973Z,4.90
2018-09-18T13:59:10.613Z,4.40
2018-09-18T14:01:13.464Z,4.43
2018-09-18T14:03:16.429Z,4.40
2018-09-18T14:05:19.436Z,4.07
2018-09-18T14:07:22.358Z,3.67
2018-09-18T14:09:25.444Z,4.00
2018-09-18T14:11:29.952Z,4.37
2018-09-18T14:13:32.832Z,4.23
2018-09-18T14:15:35.751Z,4.47
2018-09-18T14:17:38.621Z,4.10
2018-09-18T14:19:41.493Z,4.23
2018-09-18T14:21:44.406Z,4.77
2018-09-18T14:23:47.297Z,4.10
2018-09-18T14:25:50.957Z,4.60
2018-09-18T14:27:54.204Z,3.90
2018-09-18T14:29:57.627Z,4.30
2018-09-18T14:32:01.684Z,4.30
2018-09-18T14:34:05.633Z,4.27
2018-09-18T14:36:09.265Z,4.17
2018-09-18T14:38:12.228Z,4.90
2018-09-18T14:40:15.137Z,3.83
2018-09-18T14:42:18.027Z,3.90
2018-09-18T14:44:20.957Z,4.13
2018-09-18T14:46:23.868Z,4.20
2018-09-18T14:48:26.747Z,4.17
2018-09-18T14:50:29.632Z,4.50
2018-09-18T14:52:33.535Z,4.30
2018-09-18T14:54:36.444Z,3.77
2018-09-18T14:56:39.396Z,4.60
2018-09-18T14:58:42.309Z,3.83
2018-09-18T15:00:45.181Z,4.00
2018-09-18T15:02:48.082Z,4.30
2018-09-18T15:04:51.085Z,4.50
2018-09-18T15:06:54.031Z,4.30
2018-09-18T15:08:57.628Z,4.40
2018-09-18T15:11:00.729Z,4.40
2018-09-18T15:13:03.625Z,4.67
2018-09-18T15:15:06.489Z,3.97
2018-09-18T15:17:09.408Z,4.33
2018-09-18T15:19:12.390Z,4.10
2018-09-18T15:21:16.052Z,4.10
2018-09-18T15:23:18.951Z,3.53
2018-09-18T15:25:22.617Z,3.90
2018-09-18T15:27:25.522Z,4.20
2018-09-18T15:29:28.530Z,4.00
2018-09-18T15:31:32.177Z,4.03
2018-09-18T15:33:35.140Z,4.13
2018-09-18T15:35:37.980Z,4.43
2018-09-18T15:37:40.928Z,3.73
2018-09-18T15:39:43.938Z,3.57
2018-09-18T15:41:46.843Z,3.87
2018-09-18T15:43:50.468Z,3.90
2018-09-18T15:45:53.397Z,4.90
2018-09-18T15:47:56.464Z,4.00
2018-09-18T15:49:59.354Z,4.20
2018-09-18T15:52:02.324Z,4.10
2018-09-18T15:54:06.076Z,4.53
2018-09-18T15:56:09.248Z,3.87
2018-09-18T15:58:12.960Z,3.40
2018-09-18T16:00:15.900Z,4.50
2018-09-18T16:02:18.800Z,3.70
2018-09-18T16:04:22.477Z,4.07
2018-09-18T16:06:25.505Z,3.83
2018-09-18T16:08:29.141Z,3.87
2018-09-18T16:10:32.022Z,3.73
2018-09-18T16:12:34.948Z,3.43
2018-09-18T16:14:38.612Z,3.97
2018-09-18T16:16:41.575Z,4.17
2018-09-18T16:18:44.510Z,3.27
2018-09-18T16:20:48.161Z,4.20
2018-09-18T16:22:51.090Z,4.00
2018-09-18T16:24:54.100Z,4.90
2018-09-18T16:26:56.918Z,4.50
2018-09-18T16:28:59.808Z,4.13
2018-09-18T16:31:02.786Z,3.63
2018-09-18T16:33:05.673Z,3.70
2018-09-18T16:35:08.544Z,3.47
2018-09-18T16:37:12.460Z,3.87
2018-09-18T16:39:15.456Z,4.50
2018-09-18T16:41:18.475Z,3.83
2018-09-18T16:43:22.116Z,4.10
2018-09-18T16:45:25.048Z,4.00
2018-09-18T16:47:28.713Z,4.10
2018-09-18T16:49:31.631Z,4.10
2018-09-18T16:51:34.625Z,3.60
2018-09-18T16:53:38.312Z,3.40
2018-09-18T16:55:41.968Z,4.30
2018-09-18T16:57:44.845Z,4.33
2018-09-18T16:59:47.773Z,4.60
2018-09-18T17:01:50.801Z,4.50
2018-09-18T17:03:53.683Z,4.33
2018-09-18T17:05:56.553Z,4.63
2018-09-18T17:07:59.465Z,5.03
2018-09-18T17:10:02.348Z,4.93
2018-09-18T17:12:05.224Z,4.87
2018-09-18T17:14:08.213Z,4.40
2018-09-18T17:16:11.089Z,4.50
2018-09-18T17:18:13.954Z,4.40
2018-09-18T17:20:16.844Z,4.00
2018-09-18T17:22:20.590Z,4.57
2018-09-18T17:24:23.433Z,4.17
2018-09-18T17:26:26.355Z,4.80
2018-09-18T17:28:29.566Z,5.10
2018-09-18T17:30:32.446Z,4.40
2018-09-18T17:32:36.080Z,4.60
2018-09-18T17:34:38.996Z,4.90
2018-09-18T17:36:41.991Z,4.17
2018-09-18T17:38:45.743Z,4.43
2018-09-18T17:40:48.657Z,5.17
2018-09-18T17:42:52.305Z,4.60
2018-09-18T17:44:55.202Z,4.30
2018-09-18T17:46:58.186Z,5.03
2018-09-18T17:49:01.075Z,4.60
2018-09-18T17:51:04.093Z,4.60
2018-09-18T17:53:07.726Z,5.43
2018-09-18T17:55:10.612Z,5.23
2018-09-18T17:57:13.518Z,5.50
2018-09-18T17:59:16.516Z,4.13
2018-09-18T18:01:20.215Z,4.30
2018-09-18T18:03:23.141Z,5.13
2018-09-18T18:05:26.056Z,4.90
2018-09-18T18:07:28.898Z,4.37
2018-09-18T18:09:31.830Z,5.00
2018-09-18T18:11:35.524Z,4.23
2018-09-18T18:13:38.384Z,4.97
2018-09-18T18:15:41.320Z,4.30
2018-09-18T18:17:45.006Z,5.03
2018-09-18T18:19:47.881Z,5.23
2018-09-18T18:21:50.784Z,5.33
2018-09-18T18:23:53.681Z,5.10
2018-09-18T18:25:56.565Z,4.90
2018-09-18T18:27:59.544Z,5.43
2018-09-18T18:30:02.434Z,4.83
2018-09-18T18:32:06.372Z,3.90
2018-09-18T18:34:09.360Z,4.90
2018-09-18T18:36:12.220Z,5.40
2018-09-18T18:38:15.088Z,5.40
2018-09-18T18:40:18.054Z,6.73
2018-09-18T18:42:20.936Z,5.20
2018-09-18T18:44:23.800Z,5.40
2018-09-18T18:46:26.717Z,4.60
2018-09-18T18:48:29.674Z,5.53
2018-09-18T18:50:32.512Z,5.40
2018-09-18T18:52:35.409Z,5.97
2018-09-18T18:54:39.134Z,5.40
2018-09-18T18:56:41.979Z,5.40
2018-09-18T18:58:45.661Z,5.03
2018-09-18T19:00:48.549Z,5.63
2018-09-18T19:02:51.429Z,5.57
2018-09-18T19:04:54.490Z,5.13
2018-09-18T19:06:57.410Z,5.43
2018-09-18T19:09:00.246Z,4.87
2018-09-18T19:11:03.246Z,4.90
2018-09-18T19:13:06.126Z,4.63
2018-09-18T19:15:08.998Z,5.07
2018-09-18T19:17:12.246Z,3.97
2018-09-18T19:19:15.873Z,4.67
2018-09-18T19:21:18.772Z,5.27
2018-09-18T19:23:21.689Z,5.53
2018-09-18T19:25:24.557Z,4.67
2018-09-18T19:27:28.201Z,4.43
2018-09-18T19:29:31.540Z,6.00
2018-09-18T19:31:34.429Z,5.90
2018-09-18T19:33:37.323Z,5.57
2018-09-18T19:35:41.020Z,5.60
2018-09-18T19:37:44.665Z,6.33
2018-09-18T19:39:47.568Z,6.30
2018-09-18T19:41:51.229Z,9.10
2018-09-18T19:43:54.937Z,9.77
2018-09-18T19:45:57.819Z,8.83
2018-09-18T19:48:01.475Z,5.87
2018-09-18T19:50:05.116Z,5.80
2018-09-18T19:52:08.116Z,5.57
2018-09-18T19:54:11.865Z,5.30
2018-09-18T19:56:15.588Z,5.30
2018-09-18T19:58:18.474Z,4.70
2018-09-18T20:00:21.400Z,5.77
2018-09-18T20:02:24.345Z,5.23
2018-09-18T20:04:27.237Z,5.13
2018-09-18T20:06:30.152Z,5.70
2018-09-18T20:08:33.102Z,5.03
2018-09-18T20:10:36.874Z,5.40
2018-09-18T20:12:39.841Z,4.80
2018-09-18T20:14:42.667Z,6.57
2018-09-18T20:16:45.539Z,7.53
2018-09-18T20:18:48.513Z,6.93
2018-09-18T20:20:51.514Z,6.50
2018-09-18T20:22:55.108Z,5.60
2018-09-18T20:24:58.065Z,6.03
2018-09-18T20:27:00.957Z,6.97
2018-09-18T20:29:03.890Z,6.17
2018-09-18T20:31:06.873Z,6.03
2018-09-18T20:33:09.752Z,5.57
2018-09-18T20:35:12.754Z,5.33
2018-09-18T20:37:15.625Z,5.87
2018-09-18T20:39:18.522Z,5.17
2018-09-18T20:41:22.893Z,6.40
2018-09-18T20:43:25.827Z,5.03
2018-09-18T20:45:29.473Z,5.70
2018-09-18T20:47:32.355Z,4.73
2018-09-18T20:49:35.359Z,5.60
2018-09-18T20:51:38.239Z,5.80
2018-09-18T20:53:41.114Z,5.07
2018-09-18T20:55:44.051Z,5.40
2018-09-18T20:57:47.708Z,5.00
2018-09-18T20:59:51.354Z,4.90
2018-09-18T21:01:54.385Z,5.63
2018-09-18T21:03:58.056Z,5.37
2018-09-18T21:06:00.990Z,5.77
2018-09-18T21:08:04.046Z,5.70
2018-09-18T21:10:06.953Z,5.67
2018-09-18T21:12:09.825Z,6.60
2018-09-18T21:14:13.485Z,5.33
2018-09-18T21:16:16.417Z,5.03
2018-09-18T21:18:19.266Z,5.53
2018-09-18T21:20:22.288Z,5.33
2018-09-18T21:22:25.915Z,5.80
2018-09-18T21:24:28.829Z,6.07
2018-09-18T21:26:31.931Z,5.70
2018-09-18T21:28:34.835Z,4.70
2018-09-18T21:30:38.492Z,5.50
2018-09-18T21:32:41.394Z,5.40
2018-09-18T21:34:45.064Z,5.90
2018-09-18T21:36:47.979Z,5.67
2018-09-18T21:38:51.652Z,5.27
2018-09-18T21:40:54.530Z,5.73
2018-09-18T21:42:57.431Z,5.23
2018-09-18T21:45:00.392Z,5.40
2018-09-18T21:47:03.321Z,5.80
2018-09-18T21:49:06.160Z,6.33
2018-09-18T21:51:09.185Z,5.47
2018-09-18T21:53:12.053Z,5.90
2018-09-18T21:55:15.699Z,6.07
2018-09-18T21:57:18.674Z,6.17
2018-09-18T21:59:21.595Z,5.70
2018-09-18T22:01:24.538Z,6.27
2018-09-18T22:03:27.409Z,6.10
2018-09-18T22:05:30.292Z,5.17
2018-09-18T22:07:33.193Z,5.80
2018-09-18T22:09:36.236Z,5.80
2018-09-18T22:11:39.853Z,5.83
2018-09-18T22:13:42.818Z,5.77
2018-09-18T22:46:28.858Z,4.97
2018-09-18T22:48:31.721Z,7.20
2018-09-18T22:50:35.455Z,5.70
2018-09-18T22:52:38.329Z,5.43
2018-09-18T22:54:41.355Z,5.77
2018-09-18T22:56:45.014Z,5.53
2018-09-18T22:58:47.890Z,6.40
2018-09-18T23:00:50.778Z,6.80
2018-09-18T23:02:53.807Z,5.93
2018-09-18T23:04:56.743Z,6.63
2018-09-18T23:06:59.613Z,6.00
2018-09-18T23:09:02.543Z,5.30
2018-09-18T23:11:06.177Z,5.70
2018-09-18T23:13:09.066Z,5.47
2018-09-18T23:15:11.954Z,5.53
2018-09-18T23:17:14.836Z,6.07
2018-09-18T23:19:17.873Z,6.53
2018-09-18T23:21:21.639Z,6.50
2018-09-18T23:23:24.518Z,5.97
2018-09-18T23:25:27.394Z,5.33
2018-09-18T23:27:30.378Z,6.07
2018-09-18T23:29:33.264Z,5.60
2018-09-18T23:31:36.146Z,6.50
2018-09-18T23:33:39.136Z,5.97
2018-09-18T23:35:42.844Z,5.50
2018-09-18T23:37:45.685Z,5.97
2018-09-18T23:39:48.725Z,5.97
2018-09-18T23:41:51.668Z,5.90
2018-09-18T23:43:54.552Z,5.53
2018-09-18T23:45:59.073Z,6.07
2018-09-18T23:48:01.958Z,5.20
2018-09-18T23:50:04.882Z,5.53
2018-09-18T23:52:07.788Z,5.60
2018-09-18T23:54:10.661Z,5.23
2018-09-18T23:56:13.541Z,5.83
2018-09-18T23:58:17.382Z,5.83
